sensor_id;sensor_type;location;lat;lon;timestamp;P1;durP1;ratioP1;P2;durP2;ratioP2
69551;SDS011;63774;45.292;11.784;2023-11-21T00:00:24;13.30;;;9.00;;
69551;SDS011;63774;45.292;11.784;2023-11-21T00:02:52;13.80;;;9.50;;
69551;SDS011;63774;45.292;11.784;2023-11-21T00:05:18;14.20;;;9.50;;
69551;SDS011;63774;45.292;11.784;2023-11-21T00:07:43;13.20;;;9.00;;
69551;SDS011;63774;45.292;11.784;2023-11-21T00:10:09;14.30;;;9.30;;
69551;SDS011;63774;45.292;11.784;2023-11-21T00:12:43;15.70;;;9.80;;
69551;SDS011;63774;45.292;11.784;2023-11-21T00:15:11;12.80;;;9.10;;
69551;SDS011;63774;45.292;11.784;2023-11-21T00:17:40;16.80;;;9.40;;
69551;SDS011;63774;45.292;11.784;2023-11-21T00:20:06;15.00;;;9.40;;
69551;SDS011;63774;45.292;11.784;2023-11-21T00:22:35;12.40;;;9.20;;
69551;SDS011;63774;45.292;11.784;2023-11-21T00:25:03;13.90;;;9.10;;
69551;SDS011;63774;45.292;11.784;2023-11-21T00:27:29;14.00;;;9.00;;
69551;SDS011;63774;45.292;11.784;2023-11-21T00:29:54;12.80;;;8.70;;
69551;SDS011;63774;45.292;11.784;2023-11-21T00:32:20;14.90;;;9.00;;
69551;SDS011;63774;45.292;11.784;2023-11-21T00:34:45;14.30;;;9.00;;
69551;SDS011;63774;45.292;11.784;2023-11-21T00:37:10;14.90;;;9.60;;
69551;SDS011;63774;45.292;11.784;2023-11-21T00:39:36;13.00;;;9.00;;
69551;SDS011;63774;45.292;11.784;2023-11-21T00:42:01;12.90;;;8.70;;
69551;SDS011;63774;45.292;11.784;2023-11-21T00:44:26;12.90;;;8.60;;
69551;SDS011;63774;45.292;11.784;2023-11-21T00:46:52;14.70;;;9.60;;
69551;SDS011;63774;45.292;11.784;2023-11-21T00:49:17;11.40;;;8.60;;
69551;SDS011;63774;45.292;11.784;2023-11-21T00:51:42;14.00;;;8.50;;
69551;SDS011;63774;45.292;11.784;2023-11-21T00:54:08;14.70;;;9.20;;
69551;SDS011;63774;45.292;11.784;2023-11-21T00:56:33;13.50;;;9.40;;
69551;SDS011;63774;45.292;11.784;2023-11-21T00:58:59;13.20;;;9.40;;
69551;SDS011;63774;45.292;11.784;2023-11-21T01:01:24;11.30;;;8.30;;
69551;SDS011;63774;45.292;11.784;2023-11-21T01:03:52;13.60;;;8.70;;
69551;SDS011;63774;45.292;11.784;2023-11-21T01:06:19;13.80;;;8.70;;
69551;SDS011;63774;45.292;11.784;2023-11-21T01:08:44;13.00;;;8.30;;
69551;SDS011;63774;45.292;11.784;2023-11-21T01:11:10;13.00;;;8.30;;
69551;SDS011;63774;45.292;11.784;2023-11-21T01:13:41;12.20;;;8.80;;
69551;SDS011;63774;45.292;11.784;2023-11-21T01:16:07;12.90;;;8.20;;
69551;SDS011;63774;45.292;11.784;2023-11-21T01:18:33;12.40;;;8.80;;
69551;SDS011;63774;45.292;11.784;2023-11-21T01:20:58;12.80;;;8.70;;
69551;SDS011;63774;45.292;11.784;2023-11-21T01:23:25;12.10;;;8.20;;
69551;SDS011;63774;45.292;11.784;2023-11-21T01:25:52;12.00;;;8.40;;
69551;SDS011;63774;45.292;11.784;2023-11-21T01:28:17;13.40;;;9.40;;
69551;SDS011;63774;45.292;11.784;2023-11-21T01:30:42;13.10;;;8.90;;
69551;SDS011;63774;45.292;11.784;2023-11-21T01:33:08;11.30;;;8.20;;
69551;SDS011;63774;45.292;11.784;2023-11-21T01:35:33;11.60;;;8.50;;
69551;SDS011;63774;45.292;11.784;2023-11-21T01:37:59;12.90;;;9.00;;
69551;SDS011;63774;45.292;11.784;2023-11-21T01:40:24;13.50;;;9.20;;
69551;SDS011;63774;45.292;11.784;2023-11-21T01:42:50;13.40;;;8.70;;
69551;SDS011;63774;45.292;11.784;2023-11-21T01:45:15;11.50;;;8.00;;
69551;SDS011;63774;45.292;11.784;2023-11-21T01:47:40;11.60;;;8.30;;
69551;SDS011;63774;45.292;11.784;2023-11-21T01:50:11;11.50;;;8.70;;
69551;SDS011;63774;45.292;11.784;2023-11-21T01:52:38;11.50;;;8.00;;
69551;SDS011;63774;45.292;11.784;2023-11-21T01:55:05;12.60;;;7.90;;
69551;SDS011;63774;45.292;11.784;2023-11-21T01:57:31;12.40;;;8.40;;
69551;SDS011;63774;45.292;11.784;2023-11-21T01:59:56;12.10;;;8.10;;
69551;SDS011;63774;45.292;11.784;2023-11-21T02:02:23;12.90;;;8.50;;
69551;SDS011;63774;45.292;11.784;2023-11-21T02:04:49;11.30;;;8.30;;
69551;SDS011;63774;45.292;11.784;2023-11-21T02:07:14;13.60;;;8.30;;
69551;SDS011;63774;45.292;11.784;2023-11-21T02:09:40;12.10;;;8.10;;
69551;SDS011;63774;45.292;11.784;2023-11-21T02:12:07;11.70;;;7.90;;
69551;SDS011;63774;45.292;11.784;2023-11-21T02:14:33;11.40;;;8.20;;
69551;SDS011;63774;45.292;11.784;2023-11-21T02:16:59;11.50;;;8.00;;
69551;SDS011;63774;45.292;11.784;2023-11-21T02:19:26;13.00;;;8.80;;
69551;SDS011;63774;45.292;11.784;2023-11-21T02:21:51;11.70;;;7.80;;
69551;SDS011;63774;45.292;11.784;2023-11-21T02:24:20;11.60;;;8.50;;
69551;SDS011;63774;45.292;11.784;2023-11-21T02:26:46;11.30;;;7.90;;
69551;SDS011;63774;45.292;11.784;2023-11-21T02:29:12;11.60;;;7.80;;
69551;SDS011;63774;45.292;11.784;2023-11-21T02:31:38;12.70;;;8.10;;
69551;SDS011;63774;45.292;11.784;2023-11-21T02:34:15;11.70;;;8.10;;
69551;SDS011;63774;45.292;11.784;2023-11-21T02:36:41;12.00;;;8.60;;
69551;SDS011;63774;45.292;11.784;2023-11-21T02:39:07;12.20;;;8.50;;
69551;SDS011;63774;45.292;11.784;2023-11-21T02:41:33;12.30;;;7.80;;
69551;SDS011;63774;45.292;11.784;2023-11-21T02:43:59;11.60;;;8.00;;
69551;SDS011;63774;45.292;11.784;2023-11-21T02:46:25;11.70;;;7.70;;
69551;SDS011;63774;45.292;11.784;2023-11-21T02:48:50;12.00;;;7.80;;
69551;SDS011;63774;45.292;11.784;2023-11-21T02:51:16;11.40;;;7.90;;
69551;SDS011;63774;45.292;11.784;2023-11-21T02:53:41;11.70;;;7.70;;
69551;SDS011;63774;45.292;11.784;2023-11-21T02:56:07;10.40;;;7.10;;
69551;SDS011;63774;45.292;11.784;2023-11-21T02:58:32;12.00;;;8.50;;
69551;SDS011;63774;45.292;11.784;2023-11-21T03:00:58;11.40;;;8.00;;
69551;SDS011;63774;45.292;11.784;2023-11-21T03:03:23;10.90;;;8.30;;
69551;SDS011;63774;45.292;11.784;2023-11-21T03:05:49;9.90;;;7.30;;
69551;SDS011;63774;45.292;11.784;2023-11-21T03:08:15;12.20;;;7.70;;
69551;SDS011;63774;45.292;11.784;2023-11-21T03:10:40;10.20;;;7.00;;
69551;SDS011;63774;45.292;11.784;2023-11-21T03:13:05;11.20;;;7.90;;
69551;SDS011;63774;45.292;11.784;2023-11-21T03:15:31;10.80;;;7.40;;
69551;SDS011;63774;45.292;11.784;2023-11-21T03:17:58;11.60;;;7.70;;
69551;SDS011;63774;45.292;11.784;2023-11-21T03:20:23;9.80;;;7.10;;
69551;SDS011;63774;45.292;11.784;2023-11-21T03:22:48;10.80;;;7.60;;
69551;SDS011;63774;45.292;11.784;2023-11-21T03:25:14;10.80;;;7.50;;
69551;SDS011;63774;45.292;11.784;2023-11-21T03:27:40;11.30;;;8.00;;
69551;SDS011;63774;45.292;11.784;2023-11-21T03:30:07;10.20;;;7.50;;
69551;SDS011;63774;45.292;11.784;2023-11-21T03:32:34;10.80;;;7.40;;
69551;SDS011;63774;45.292;11.784;2023-11-21T03:34:59;11.50;;;7.60;;
69551;SDS011;63774;45.292;11.784;2023-11-21T03:37:25;9.80;;;7.10;;
69551;SDS011;63774;45.292;11.784;2023-11-21T03:39:52;11.00;;;7.70;;
69551;SDS011;63774;45.292;11.784;2023-11-21T03:42:18;10.70;;;7.30;;
69551;SDS011;63774;45.292;11.784;2023-11-21T03:44:43;10.10;;;7.70;;
69551;SDS011;63774;45.292;11.784;2023-11-21T03:47:08;11.20;;;7.60;;
69551;SDS011;63774;45.292;11.784;2023-11-21T03:49:34;10.60;;;7.10;;
69551;SDS011;63774;45.292;11.784;2023-11-21T03:51:59;10.10;;;7.40;;
69551;SDS011;63774;45.292;11.784;2023-11-21T03:54:24;10.60;;;7.60;;
69551;SDS011;63774;45.292;11.784;2023-11-21T03:56:50;11.10;;;7.60;;
69551;SDS011;63774;45.292;11.784;2023-11-21T03:59:15;10.60;;;7.60;;
69551;SDS011;63774;45.292;11.784;2023-11-21T04:01:40;10.70;;;7.50;;
69551;SDS011;63774;45.292;11.784;2023-11-21T04:04:06;10.40;;;7.30;;
69551;SDS011;63774;45.292;11.784;2023-11-21T04:06:31;9.90;;;7.10;;
69551;SDS011;63774;45.292;11.784;2023-11-21T04:08:58;10.00;;;7.30;;
69551;SDS011;63774;45.292;11.784;2023-11-21T04:11:23;11.50;;;7.90;;
69551;SDS011;63774;45.292;11.784;2023-11-21T04:13:49;9.70;;;7.00;;
69551;SDS011;63774;45.292;11.784;2023-11-21T04:16:20;9.80;;;7.00;;
69551;SDS011;63774;45.292;11.784;2023-11-21T04:18:45;8.20;;;6.50;;
69551;SDS011;63774;45.292;11.784;2023-11-21T04:21:14;8.80;;;7.00;;
69551;SDS011;63774;45.292;11.784;2023-11-21T04:23:42;10.40;;;7.30;;
69551;SDS011;63774;45.292;11.784;2023-11-21T04:26:07;10.80;;;7.20;;
69551;SDS011;63774;45.292;11.784;2023-11-21T04:28:33;10.60;;;7.40;;
69551;SDS011;63774;45.292;11.784;2023-11-21T04:30:58;10.10;;;7.20;;
69551;SDS011;63774;45.292;11.784;2023-11-21T04:33:23;9.00;;;6.90;;
69551;SDS011;63774;45.292;11.784;2023-11-21T04:35:50;10.00;;;6.70;;
69551;SDS011;63774;45.292;11.784;2023-11-21T04:38:19;9.20;;;6.80;;
69551;SDS011;63774;45.292;11.784;2023-11-21T04:40:50;9.80;;;6.60;;
69551;SDS011;63774;45.292;11.784;2023-11-21T04:43:15;9.60;;;6.90;;
69551;SDS011;63774;45.292;11.784;2023-11-21T04:45:41;9.70;;;6.70;;
69551;SDS011;63774;45.292;11.784;2023-11-21T04:48:07;10.90;;;7.30;;
69551;SDS011;63774;45.292;11.784;2023-11-21T04:50:33;10.60;;;7.10;;
69551;SDS011;63774;45.292;11.784;2023-11-21T04:52:58;9.50;;;6.80;;
69551;SDS011;63774;45.292;11.784;2023-11-21T04:55:24;10.30;;;6.90;;
69551;SDS011;63774;45.292;11.784;2023-11-21T04:57:49;9.40;;;6.70;;
69551;SDS011;63774;45.292;11.784;2023-11-21T05:00:17;11.30;;;7.30;;
69551;SDS011;63774;45.292;11.784;2023-11-21T05:02:43;9.00;;;6.70;;
69551;SDS011;63774;45.292;11.784;2023-11-21T05:05:12;9.40;;;7.20;;
69551;SDS011;63774;45.292;11.784;2023-11-21T05:07:38;9.40;;;6.80;;
69551;SDS011;63774;45.292;11.784;2023-11-21T05:10:07;9.20;;;6.80;;
69551;SDS011;63774;45.292;11.784;2023-11-21T05:12:37;8.90;;;6.60;;
69551;SDS011;63774;45.292;11.784;2023-11-21T05:15:08;9.60;;;6.60;;
69551;SDS011;63774;45.292;11.784;2023-11-21T05:17:37;9.30;;;7.00;;
69551;SDS011;63774;45.292;11.784;2023-11-21T05:20:06;8.50;;;6.20;;
69551;SDS011;63774;45.292;11.784;2023-11-21T05:22:34;10.70;;;6.70;;
69551;SDS011;63774;45.292;11.784;2023-11-21T05:25:03;10.00;;;6.60;;
69551;SDS011;63774;45.292;11.784;2023-11-21T05:27:31;8.30;;;6.10;;
69551;SDS011;63774;45.292;11.784;2023-11-21T05:29:57;9.10;;;6.20;;
69551;SDS011;63774;45.292;11.784;2023-11-21T05:32:23;8.30;;;6.60;;
69551;SDS011;63774;45.292;11.784;2023-11-21T05:34:49;9.40;;;6.60;;
69551;SDS011;63774;45.292;11.784;2023-11-21T05:37:17;8.90;;;6.20;;
69551;SDS011;63774;45.292;11.784;2023-11-21T05:39:43;10.10;;;6.80;;
69551;SDS011;63774;45.292;11.784;2023-11-21T05:42:17;10.30;;;6.60;;
69551;SDS011;63774;45.292;11.784;2023-11-21T05:44:42;8.80;;;6.30;;
69551;SDS011;63774;45.292;11.784;2023-11-21T05:47:11;9.10;;;6.40;;
69551;SDS011;63774;45.292;11.784;2023-11-21T05:49:41;8.60;;;6.30;;
69551;SDS011;63774;45.292;11.784;2023-11-21T05:52:07;9.30;;;5.90;;
69551;SDS011;63774;45.292;11.784;2023-11-21T05:54:32;9.40;;;6.60;;
69551;SDS011;63774;45.292;11.784;2023-11-21T05:57:00;10.10;;;6.80;;
69551;SDS011;63774;45.292;11.784;2023-11-21T05:59:26;9.30;;;6.30;;
69551;SDS011;63774;45.292;11.784;2023-11-21T06:01:51;9.20;;;6.60;;
69551;SDS011;63774;45.292;11.784;2023-11-21T06:04:17;8.00;;;6.10;;
69551;SDS011;63774;45.292;11.784;2023-11-21T06:06:43;9.10;;;6.40;;
69551;SDS011;63774;45.292;11.784;2023-11-21T06:09:09;9.30;;;6.30;;
69551;SDS011;63774;45.292;11.784;2023-11-21T06:11:34;9.50;;;6.60;;
69551;SDS011;63774;45.292;11.784;2023-11-21T06:14:00;8.50;;;5.80;;
69551;SDS011;63774;45.292;11.784;2023-11-21T06:16:25;9.10;;;6.40;;
69551;SDS011;63774;45.292;11.784;2023-11-21T06:18:50;9.20;;;6.40;;
69551;SDS011;63774;45.292;11.784;2023-11-21T06:21:16;8.50;;;6.50;;
69551;SDS011;63774;45.292;11.784;2023-11-21T06:23:43;8.30;;;6.10;;
69551;SDS011;63774;45.292;11.784;2023-11-21T06:26:17;8.60;;;6.10;;
69551;SDS011;63774;45.292;11.784;2023-11-21T06:28:47;8.60;;;6.50;;
69551;SDS011;63774;45.292;11.784;2023-11-21T06:31:12;8.80;;;6.30;;
69551;SDS011;63774;45.292;11.784;2023-11-21T06:33:37;8.70;;;6.40;;
69551;SDS011;63774;45.292;11.784;2023-11-21T06:36:06;8.90;;;5.90;;
69551;SDS011;63774;45.292;11.784;2023-11-21T06:38:32;8.60;;;6.20;;
69551;SDS011;63774;45.292;11.784;2023-11-21T06:41:00;8.70;;;6.10;;
69551;SDS011;63774;45.292;11.784;2023-11-21T06:43:32;8.80;;;6.30;;
69551;SDS011;63774;45.292;11.784;2023-11-21T06:45:57;9.70;;;6.20;;
69551;SDS011;63774;45.292;11.784;2023-11-21T06:48:25;9.10;;;6.20;;
69551;SDS011;63774;45.292;11.784;2023-11-21T06:50:51;8.60;;;6.10;;
69551;SDS011;63774;45.292;11.784;2023-11-21T06:53:17;9.70;;;6.60;;
69551;SDS011;63774;45.292;11.784;2023-11-21T06:55:43;8.80;;;6.00;;
69551;SDS011;63774;45.292;11.784;2023-11-21T06:58:12;8.00;;;5.80;;
69551;SDS011;63774;45.292;11.784;2023-11-21T07:00:39;8.50;;;6.20;;
69551;SDS011;63774;45.292;11.784;2023-11-21T07:03:04;8.50;;;6.00;;
69551;SDS011;63774;45.292;11.784;2023-11-21T07:05:30;8.30;;;5.90;;
69551;SDS011;63774;45.292;11.784;2023-11-21T07:07:55;8.50;;;6.20;;
69551;SDS011;63774;45.292;11.784;2023-11-21T07:10:21;8.20;;;5.90;;
69551;SDS011;63774;45.292;11.784;2023-11-21T07:12:47;8.80;;;6.20;;
69551;SDS011;63774;45.292;11.784;2023-11-21T07:15:21;9.40;;;6.60;;
69551;SDS011;63774;45.292;11.784;2023-11-21T07:17:51;9.40;;;6.00;;
69551;SDS011;63774;45.292;11.784;2023-11-21T07:20:19;8.20;;;6.00;;
69551;SDS011;63774;45.292;11.784;2023-11-21T07:22:44;9.20;;;6.40;;
69551;SDS011;63774;45.292;11.784;2023-11-21T07:25:10;9.40;;;6.00;;
69551;SDS011;63774;45.292;11.784;2023-11-21T07:27:35;8.30;;;5.90;;
69551;SDS011;63774;45.292;11.784;2023-11-21T07:30:02;8.30;;;6.10;;
69551;SDS011;63774;45.292;11.784;2023-11-21T07:32:30;9.30;;;6.70;;
69551;SDS011;63774;45.292;11.784;2023-11-21T07:34:55;8.50;;;5.90;;
69551;SDS011;63774;45.292;11.784;2023-11-21T07:37:23;8.60;;;6.30;;
69551;SDS011;63774;45.292;11.784;2023-11-21T07:39:48;9.00;;;6.10;;
69551;SDS011;63774;45.292;11.784;2023-11-21T07:42:14;8.30;;;6.10;;
69551;SDS011;63774;45.292;11.784;2023-11-21T07:44:39;7.90;;;5.80;;
69551;SDS011;63774;45.292;11.784;2023-11-21T07:47:04;8.80;;;6.30;;
69551;SDS011;63774;45.292;11.784;2023-11-21T07:49:30;8.80;;;6.30;;
69551;SDS011;63774;45.292;11.784;2023-11-21T07:51:55;9.80;;;5.90;;
69551;SDS011;63774;45.292;11.784;2023-11-21T07:54:21;9.00;;;6.00;;
69551;SDS011;63774;45.292;11.784;2023-11-21T07:56:46;8.00;;;5.80;;
69551;SDS011;63774;45.292;11.784;2023-11-21T07:59:12;8.30;;;5.90;;
69551;SDS011;63774;45.292;11.784;2023-11-21T08:01:39;8.30;;;6.40;;
69551;SDS011;63774;45.292;11.784;2023-11-21T08:04:05;9.60;;;6.10;;
69551;SDS011;63774;45.292;11.784;2023-11-21T08:06:33;7.70;;;5.50;;
69551;SDS011;63774;45.292;11.784;2023-11-21T08:08:59;9.20;;;6.10;;
69551;SDS011;63774;45.292;11.784;2023-11-21T08:11:24;8.70;;;6.20;;
69551;SDS011;63774;45.292;11.784;2023-11-21T08:13:49;9.90;;;6.20;;
69551;SDS011;63774;45.292;11.784;2023-11-21T08:16:15;8.00;;;6.10;;
69551;SDS011;63774;45.292;11.784;2023-11-21T08:18:42;7.90;;;5.70;;
69551;SDS011;63774;45.292;11.784;2023-11-21T08:21:07;8.10;;;5.70;;
69551;SDS011;63774;45.292;11.784;2023-11-21T08:23:33;8.60;;;5.60;;
69551;SDS011;63774;45.292;11.784;2023-11-21T08:25:59;8.20;;;5.90;;
69551;SDS011;63774;45.292;11.784;2023-11-21T08:28:24;8.50;;;6.10;;
69551;SDS011;63774;45.292;11.784;2023-11-21T08:30:51;8.40;;;5.70;;
69551;SDS011;63774;45.292;11.784;2023-11-21T08:33:17;8.80;;;6.20;;
69551;SDS011;63774;45.292;11.784;2023-11-21T08:35:43;9.40;;;6.20;;
69551;SDS011;63774;45.292;11.784;2023-11-21T08:38:09;9.50;;;5.60;;
69551;SDS011;63774;45.292;11.784;2023-11-21T08:40:35;11.00;;;6.00;;
69551;SDS011;63774;45.292;11.784;2023-11-21T08:43:03;10.30;;;6.00;;
69551;SDS011;63774;45.292;11.784;2023-11-21T08:45:32;8.30;;;5.80;;
69551;SDS011;63774;45.292;11.784;2023-11-21T08:47:59;9.00;;;6.00;;
69551;SDS011;63774;45.292;11.784;2023-11-21T08:50:25;8.30;;;5.80;;
69551;SDS011;63774;45.292;11.784;2023-11-21T08:52:50;10.60;;;6.50;;
69551;SDS011;63774;45.292;11.784;2023-11-21T08:55:16;11.00;;;6.10;;
69551;SDS011;63774;45.292;11.784;2023-11-21T08:57:43;8.90;;;5.80;;
69551;SDS011;63774;45.292;11.784;2023-11-21T09:00:09;9.60;;;6.30;;
69551;SDS011;63774;45.292;11.784;2023-11-21T09:02:37;8.50;;;5.80;;
69551;SDS011;63774;45.292;11.784;2023-11-21T09:05:02;11.50;;;5.90;;
69551;SDS011;63774;45.292;11.784;2023-11-21T09:07:28;8.40;;;5.70;;
69551;SDS011;63774;45.292;11.784;2023-11-21T09:09:54;12.50;;;6.30;;
69551;SDS011;63774;45.292;11.784;2023-11-21T09:12:20;8.90;;;6.10;;
69551;SDS011;63774;45.292;11.784;2023-11-21T09:14:46;8.90;;;6.10;;
69551;SDS011;63774;45.292;11.784;2023-11-21T09:17:11;13.10;;;6.50;;
69551;SDS011;63774;45.292;11.784;2023-11-21T09:19:37;47.60;;;11.50;;
69551;SDS011;63774;45.292;11.784;2023-11-21T09:22:05;62.90;;;13.50;;
69551;SDS011;63774;45.292;11.784;2023-11-21T09:24:31;53.20;;;11.80;;
69551;SDS011;63774;45.292;11.784;2023-11-21T09:26:57;46.80;;;11.00;;
69551;SDS011;63774;45.292;11.784;2023-11-21T09:29:22;45.70;;;12.40;;
69551;SDS011;63774;45.292;11.784;2023-11-21T09:31:48;51.70;;;12.40;;
69551;SDS011;63774;45.292;11.784;2023-11-21T09:34:15;42.40;;;11.50;;
69551;SDS011;63774;45.292;11.784;2023-11-21T09:36:40;35.60;;;10.90;;
69551;SDS011;63774;45.292;11.784;2023-11-21T09:39:15;35.90;;;11.20;;
69551;SDS011;63774;45.292;11.784;2023-11-21T09:41:43;36.90;;;10.60;;
69551;SDS011;63774;45.292;11.784;2023-11-21T09:44:09;29.40;;;11.00;;
69551;SDS011;63774;45.292;11.784;2023-11-21T09:46:39;36.80;;;10.40;;
69551;SDS011;63774;45.292;11.784;2023-11-21T09:49:11;34.10;;;10.60;;
69551;SDS011;63774;45.292;11.784;2023-11-21T09:51:42;31.90;;;9.60;;
69551;SDS011;63774;45.292;11.784;2023-11-21T09:54:13;39.50;;;10.30;;
69551;SDS011;63774;45.292;11.784;2023-11-21T09:56:41;31.80;;;10.70;;
69551;SDS011;63774;45.292;11.784;2023-11-21T09:59:18;32.50;;;9.50;;
69551;SDS011;63774;45.292;11.784;2023-11-21T10:01:43;33.30;;;10.30;;
69551;SDS011;63774;45.292;11.784;2023-11-21T10:04:11;25.70;;;9.60;;
69551;SDS011;63774;45.292;11.784;2023-11-21T10:06:43;30.60;;;9.40;;
69551;SDS011;63774;45.292;11.784;2023-11-21T10:09:12;22.30;;;8.70;;
69551;SDS011;63774;45.292;11.784;2023-11-21T10:11:42;27.50;;;9.30;;
69551;SDS011;63774;45.292;11.784;2023-11-21T10:14:11;28.70;;;8.80;;
69551;SDS011;63774;45.292;11.784;2023-11-21T10:16:43;25.60;;;8.90;;
69551;SDS011;63774;45.292;11.784;2023-11-21T10:19:12;24.60;;;9.00;;
69551;SDS011;63774;45.292;11.784;2023-11-21T10:21:40;23.90;;;8.20;;
69551;SDS011;63774;45.292;11.784;2023-11-21T10:24:06;21.80;;;8.00;;
69551;SDS011;63774;45.292;11.784;2023-11-21T10:26:31;22.80;;;8.20;;
69551;SDS011;63774;45.292;11.784;2023-11-21T10:28:57;22.40;;;8.40;;
69551;SDS011;63774;45.292;11.784;2023-11-21T10:31:26;26.00;;;9.00;;
69551;SDS011;63774;45.292;11.784;2023-11-21T10:33:56;26.30;;;8.40;;
69551;SDS011;63774;45.292;11.784;2023-11-21T10:36:26;23.20;;;8.70;;
69551;SDS011;63774;45.292;11.784;2023-11-21T10:38:52;23.10;;;7.90;;
69551;SDS011;63774;45.292;11.784;2023-11-21T10:41:18;20.00;;;8.70;;
69551;SDS011;63774;45.292;11.784;2023-11-21T10:43:43;19.40;;;8.10;;
69551;SDS011;63774;45.292;11.784;2023-11-21T10:46:09;22.40;;;8.30;;
69551;SDS011;63774;45.292;11.784;2023-11-21T10:48:43;20.10;;;8.10;;
69551;SDS011;63774;45.292;11.784;2023-11-21T10:51:12;17.80;;;8.30;;
69551;SDS011;63774;45.292;11.784;2023-11-21T10:53:40;21.10;;;7.50;;
69551;SDS011;63774;45.292;11.784;2023-11-21T10:56:08;19.00;;;7.40;;
69551;SDS011;63774;45.292;11.784;2023-11-21T10:58:35;15.60;;;7.50;;
69551;SDS011;63774;45.292;11.784;2023-11-21T11:01:01;17.40;;;7.90;;
69551;SDS011;63774;45.292;11.784;2023-11-21T11:03:29;19.90;;;7.70;;
69551;SDS011;63774;45.292;11.784;2023-11-21T11:05:54;14.30;;;7.40;;
69551;SDS011;63774;45.292;11.784;2023-11-21T11:08:23;18.60;;;7.90;;
69551;SDS011;63774;45.292;11.784;2023-11-21T11:10:51;15.90;;;7.50;;
69551;SDS011;63774;45.292;11.784;2023-11-21T11:13:17;14.80;;;7.80;;
69551;SDS011;63774;45.292;11.784;2023-11-21T11:15:43;14.00;;;6.60;;
69551;SDS011;63774;45.292;11.784;2023-11-21T11:18:12;16.60;;;7.70;;
69551;SDS011;63774;45.292;11.784;2023-11-21T11:20:46;15.50;;;7.30;;
69551;SDS011;63774;45.292;11.784;2023-11-21T11:28:49;19.20;;;7.40;;
69551;SDS011;63774;45.292;11.784;2023-11-21T11:39:28;15.60;;;6.90;;
69551;SDS011;63774;45.292;11.784;2023-11-21T11:42:06;13.80;;;6.90;;
69551;SDS011;63774;45.292;11.784;2023-11-21T11:47:16;16.70;;;7.10;;
69551;SDS011;63774;45.292;11.784;2023-11-21T11:52:42;15.10;;;6.80;;
69551;SDS011;63774;45.292;11.784;2023-11-21T11:55:09;12.90;;;6.50;;
69551;SDS011;63774;45.292;11.784;2023-11-21T11:57:35;14.00;;;6.70;;
69551;SDS011;63774;45.292;11.784;2023-11-21T12:00:14;11.40;;;6.40;;
69551;SDS011;63774;45.292;11.784;2023-11-21T12:02:49;12.90;;;6.60;;
69551;SDS011;63774;45.292;11.784;2023-11-21T12:05:16;12.20;;;6.40;;
69551;SDS011;63774;45.292;11.784;2023-11-21T12:07:44;11.20;;;6.50;;
69551;SDS011;63774;45.292;11.784;2023-11-21T12:10:17;11.80;;;6.60;;
69551;SDS011;63774;45.292;11.784;2023-11-21T12:12:44;12.40;;;7.20;;
69551;SDS011;63774;45.292;11.784;2023-11-21T12:15:18;11.40;;;6.10;;
69551;SDS011;63774;45.292;11.784;2023-11-21T12:17:46;12.10;;;5.80;;
69551;SDS011;63774;45.292;11.784;2023-11-21T12:20:13;11.90;;;5.90;;
69551;SDS011;63774;45.292;11.784;2023-11-21T12:22:44;12.00;;;5.90;;
69551;SDS011;63774;45.292;11.784;2023-11-21T12:25:13;11.10;;;6.20;;
69551;SDS011;63774;45.292;11.784;2023-11-21T12:27:51;11.90;;;6.10;;
69551;SDS011;63774;45.292;11.784;2023-11-21T12:30:40;11.10;;;6.10;;
69551;SDS011;63774;45.292;11.784;2023-11-21T12:33:05;10.80;;;6.00;;
69551;SDS011;63774;45.292;11.784;2023-11-21T12:35:33;12.80;;;6.10;;
69551;SDS011;63774;45.292;11.784;2023-11-21T12:37:59;11.40;;;6.10;;
69551;SDS011;63774;45.292;11.784;2023-11-21T12:40:25;10.40;;;6.00;;
69551;SDS011;63774;45.292;11.784;2023-11-21T12:42:54;11.70;;;5.80;;
69551;SDS011;63774;45.292;11.784;2023-11-21T12:45:23;12.20;;;5.90;;
69551;SDS011;63774;45.292;11.784;2023-11-21T12:48:02;9.10;;;5.40;;
69551;SDS011;63774;45.292;11.784;2023-11-21T12:50:33;8.50;;;5.70;;
69551;SDS011;63774;45.292;11.784;2023-11-21T12:52:59;10.20;;;5.40;;
69551;SDS011;63774;45.292;11.784;2023-11-21T12:55:25;10.40;;;6.40;;
69551;SDS011;63774;45.292;11.784;2023-11-21T12:57:54;11.80;;;5.90;;
69551;SDS011;63774;45.292;11.784;2023-11-21T13:00:28;10.90;;;5.70;;
69551;SDS011;63774;45.292;11.784;2023-11-21T13:02:55;9.80;;;5.80;;
69551;SDS011;63774;45.292;11.784;2023-11-21T13:05:29;10.70;;;5.80;;
69551;SDS011;63774;45.292;11.784;2023-11-21T13:07:58;11.00;;;5.40;;
69551;SDS011;63774;45.292;11.784;2023-11-21T13:10:25;9.00;;;5.50;;
69551;SDS011;63774;45.292;11.784;2023-11-21T13:12:54;10.50;;;5.90;;
69551;SDS011;63774;45.292;11.784;2023-11-21T13:15:20;13.50;;;6.20;;
69551;SDS011;63774;45.292;11.784;2023-11-21T13:17:45;8.80;;;5.30;;
69551;SDS011;63774;45.292;11.784;2023-11-21T13:20:11;13.30;;;5.90;;
69551;SDS011;63774;45.292;11.784;2023-11-21T13:22:52;10.10;;;5.50;;
69551;SDS011;63774;45.292;11.784;2023-11-21T13:25:27;9.10;;;5.30;;
69551;SDS011;63774;45.292;11.784;2023-11-21T13:27:53;9.40;;;5.10;;
69551;SDS011;63774;45.292;11.784;2023-11-21T13:30:19;9.80;;;5.30;;
69551;SDS011;63774;45.292;11.784;2023-11-21T13:32:51;9.90;;;5.50;;
69551;SDS011;63774;45.292;11.784;2023-11-21T13:35:17;9.90;;;5.30;;
69551;SDS011;63774;45.292;11.784;2023-11-21T13:37:49;8.20;;;5.10;;
69551;SDS011;63774;45.292;11.784;2023-11-21T13:40:18;9.00;;;5.20;;
69551;SDS011;63774;45.292;11.784;2023-11-21T13:42:47;9.50;;;5.40;;
69551;SDS011;63774;45.292;11.784;2023-11-21T13:45:12;8.40;;;5.60;;
69551;SDS011;63774;45.292;11.784;2023-11-21T13:47:38;9.30;;;5.00;;
69551;SDS011;63774;45.292;11.784;2023-11-21T13:50:05;8.40;;;5.40;;
69551;SDS011;63774;45.292;11.784;2023-11-21T13:52:42;10.50;;;5.10;;
69551;SDS011;63774;45.292;11.784;2023-11-21T13:55:07;8.60;;;5.30;;
69551;SDS011;63774;45.292;11.784;2023-11-21T13:57:39;8.10;;;5.00;;
69551;SDS011;63774;45.292;11.784;2023-11-21T14:00:04;9.60;;;5.10;;
69551;SDS011;63774;45.292;11.784;2023-11-21T14:02:36;7.20;;;4.50;;
69551;SDS011;63774;45.292;11.784;2023-11-21T14:05:07;8.40;;;4.90;;
69551;SDS011;63774;45.292;11.784;2023-11-21T14:07:34;8.70;;;4.80;;
69551;SDS011;63774;45.292;11.784;2023-11-21T14:10:03;9.80;;;5.10;;
69551;SDS011;63774;45.292;11.784;2023-11-21T14:12:32;10.00;;;5.20;;
69551;SDS011;63774;45.292;11.784;2023-11-21T14:15:00;12.00;;;5.40;;
69551;SDS011;63774;45.292;11.784;2023-11-21T14:17:26;7.00;;;4.70;;
69551;SDS011;63774;45.292;11.784;2023-11-21T14:19:52;9.50;;;5.00;;
69551;SDS011;63774;45.292;11.784;2023-11-21T14:22:17;9.80;;;5.10;;
69551;SDS011;63774;45.292;11.784;2023-11-21T14:24:43;8.10;;;4.80;;
69551;SDS011;63774;45.292;11.784;2023-11-21T14:27:11;9.20;;;5.10;;
69551;SDS011;63774;45.292;11.784;2023-11-21T14:29:37;9.30;;;5.00;;
69551;SDS011;63774;45.292;11.784;2023-11-21T14:32:06;8.80;;;4.90;;
69551;SDS011;63774;45.292;11.784;2023-11-21T14:34:32;8.10;;;4.60;;
69551;SDS011;63774;45.292;11.784;2023-11-21T14:36:58;7.30;;;5.00;;
69551;SDS011;63774;45.292;11.784;2023-11-21T14:39:23;7.60;;;4.80;;
69551;SDS011;63774;45.292;11.784;2023-11-21T14:41:51;7.50;;;4.60;;
69551;SDS011;63774;45.292;11.784;2023-11-21T14:44:18;7.50;;;4.60;;